Terminal Aerodrome Forecast
Issued by NWS Cleveland, OH

Home | Current Version | Previous Version | Text Only | Print | Product List | Glossary On
Versions: 1 2 3 4 5 6 7 8 9 10 11 12 13 14 15 16 17 18 19 20 21 22 23 24 25
947
FTUS41 KCLE 281401 AAA
TAFMFD
TAF AMD
KMFD 281401Z 2814/2912 15004KT P6SM BKN006 OVC015
     FM281600 17006KT P6SM BKN025 BKN060
     FM281900 20008KT P6SM VCTS BKN035CB OVC050
     FM282100 22013KT P6SM VCTS BKN035 OVC050CB
      TEMPO 2823/2902 3SM -TSRA BR BKN035CB
     FM290200 25010KT P6SM SCT015 BKN150=

USA.gov is the U.S. government's official web portal to all federal, state and local government web resources and services.